Terminal Aerodrome Forecast
Issued by NWS Mt. Holly, NJ

Home | Current Version | Previous Version | Text Only | Print | Product List | Glossary On
Versions: 1 2 3 4 5 6 7 8 9 10 11 12 13 14 15 16 17 18 19 20 21 22 23 24 25
365
FTUS41 KPHI 240521
TAFRDG
TAF
KRDG 240521Z 2406/2506 03010G18KT P6SM -RA OVC015
     FM241200 36009G17KT P6SM OVC015
     FM241800 33012G20KT P6SM OVC025
     FM242300 31011KT P6SM BKN035=

USA.gov is the U.S. government's official web portal to all federal, state and local government web resources and services.